CST,Max TemperatureF,Mean TemperatureF,Min TemperatureF,Max Dew PointF,MeanDew PointF,Min DewpointF,Max Humidity, Mean Humidity, Min Humidity, Max Sea Level PressureIn, Mean Sea Level PressureIn, Min Sea Level PressureIn, Max VisibilityMiles, Mean VisibilityMiles, Min VisibilityMiles, Max Wind SpeedMPH, Mean Wind SpeedMPH, Max Gust SpeedMPH,PrecipitationIn, CloudCover, Events, WindDirDegrees
2013-2-1,24,10,-5,18,1,-13,77,68,56,30.38,30.18,30.00,10,10,10,22,10,29,0.00,5,Snow,212
2013-2-2,37,27,17,28,17,7,93,76,58,30.18,30.08,30.01,10,9,0,31,9,41,0.00,7,Rain-Snow,294
2013-2-3,37,26,14,28,19,10,86,71,52,30.17,30.00,29.75,10,10,10,25,14,36,0.00,1,Snow,235
2013-2-4,35,26,17,28,18,14,93,79,64,30.01,29.91,29.75,10,10,9,16,7,24,0.00,6,,321
2013-2-5,46,35,24,30,25,21,100,77,46,30.08,29.92,29.78,10,8,5,22,10,30,0.00,2,,281
2013-2-6,48,37,26,34,31,23,93,76,54,30.07,29.95,29.85,10,10,10,21,7,30,0.00,5,Rain,159
2013-2-7,37,32,26,34,28,23,100,86,75,30.23,30.05,29.89,10,8,2,22,9,26,0.00,8,,1
2013-2-8,32,28,23,25,23,19,93,84,69,30.33,30.25,30.15,10,10,7,18,8,26,0.00,7,,120
2013-2-9,46,36,26,34,30,25,93,81,57,30.17,29.95,29.72,10,8,3,24,14,30,0.00,6,Rain,162
2013-2-10,44,36,28,41,33,23,100,90,75,29.72,29.43,29.23,10,7,2,30,17,40,0.02,8,Rain-Snow,195
2013-2-11,30,28,26,23,21,19,86,78,69,30.12,29.99,29.67,10,10,9,31,20,40,0.00,8,Rain-Snow,296
2013-2-12,46,32,19,25,20,16,93,67,29,30.13,29.98,29.88,10,10,9,17,7,24,0.00,0,,244
2013-2-13,51,35,19,30,25,18,93,69,35,29.88,29.77,29.68,10,10,10,17,5,25,0.00,1,,246
2013-2-14,41,30,19,32,24,9,93,71,49,30.24,29.97,29.75,10,10,10,22,12,31,0.00,6,,313
2013-2-15,28,20,12,19,12,5,86,71,51,30.33,30.30,30.25,10,10,2,15,7,20,0.00,3,Rain-Snow,326
2013-2-16,35,22,8,21,15,7,92,71,41,30.30,30.13,30.02,10,10,10,12,5,17,0.00,4,Snow,204
2013-2-17,35,28,24,23,19,18,80,74,60,30.02,29.97,29.89,10,10,10,17,7,20,0.00,0,,150
2013-2-18,15,14,12,7,5,3,68,67,67,30.01,29.99,29.96,10,10,10,23,22,32,0.00,6,,311
2013-2-19,21,13,5,3,-1,-4,73,58,36,30.37,30.22,30.02,10,10,6,24,18,32,0.00,2,Rain-Snow,320
2013-2-20,24,12,0,7,-1,-8,78,56,34,30.39,30.32,30.23,10,10,10,15,8,18,0.00,2,Snow,81
2013-2-21,24,20,17,19,13,7,93,71,50,30.27,30.05,29.84,10,6,0,24,15,32,0.04,7,Snow,76
2013-2-22,23,16,10,16,14,9,93,83,74,29.98,29.91,29.81,10,8,1,17,11,25,0.01,6,Rain-Snow,312
2013-2-23,28,14,1,21,12,-4,93,82,69,29.97,29.89,29.83,10,9,3,12,3,,0.00,0,Snow,185
2013-2-24,35,22,8,28,21,5,93,84,65,30.06,29.98,29.89,10,7,2,7,1,,0.00,5,Snow,193
2013-2-25,30,27,24,27,25,25,100,92,80,30.09,30.03,29.94,7,2,0,12,6,18,0.00,8,Fog-Rain-Snow,25
2013-2-26,32,28,24,27,25,23,100,89,75,29.94,29.85,29.78,10,4,1,20,12,26,0.00,6,Rain,18
2013-2-27,35,29,23,25,22,19,93,79,65,30.06,29.93,29.85,10,9,5,23,14,31,0.00,5,,336
2013-2-28,28,26,24,23,22,19,86,83,74,30.20,30.15,30.07,10,10,8,17,12,24,0.00,8,Rain,334